createdAt,value
2023-04-07T00:00:21.926Z,0.52
2023-04-07T00:01:21.968Z,0.53
2023-04-07T00:02:22.081Z,0.52
2023-04-07T00:03:22.161Z,0.52
2023-04-07T00:04:22.282Z,0.53
2023-04-07T00:05:22.071Z,0.53
2023-04-07T00:06:22.144Z,0.53
2023-04-07T00:07:22.199Z,0.52
2023-04-07T00:08:22.232Z,0.51
2023-04-07T00:09:22.273Z,0.53
2023-04-07T00:10:22.327Z,0.52
2023-04-07T00:11:22.358Z,0.51
2023-04-07T00:12:22.393Z,0.51
2023-04-07T00:13:22.417Z,0.52
2023-04-07T00:14:22.475Z,0.52
2023-04-07T00:15:22.539Z,0.51
2023-04-07T00:16:22.665Z,0.53
2023-04-07T00:17:22.655Z,0.52
2023-04-07T00:18:22.644Z,0.50
2023-04-07T00:19:22.706Z,0.52
2023-04-07T00:20:22.739Z,0.51
2023-04-07T00:21:22.773Z,0.51
2023-04-07T00:22:22.835Z,0.52
2023-04-07T00:23:22.866Z,0.52
2023-04-07T00:24:33.453Z,0.51
2023-04-07T00:25:23.922Z,0.51
2023-04-07T00:26:22.879Z,0.51
2023-04-07T00:27:22.967Z,0.51
2023-04-07T00:28:22.868Z,0.52
2023-04-07T00:29:22.851Z,0.53
2023-04-07T00:30:22.862Z,0.53
2023-04-07T00:31:22.938Z,0.54
2023-04-07T00:32:22.984Z,0.53
2023-04-07T00:33:22.856Z,0.53
2023-04-07T00:34:22.860Z,0.53
2023-04-07T00:35:22.863Z,0.53
2023-04-07T00:36:22.874Z,0.54
2023-04-07T00:37:22.924Z,0.53
2023-04-07T00:38:22.993Z,0.54
2023-04-07T00:39:23.061Z,0.52
2023-04-07T00:40:23.024Z,0.52
2023-04-07T00:41:23.100Z,0.52
2023-04-07T00:42:23.178Z,0.52
2023-04-07T00:43:23.222Z,0.52
2023-04-07T00:44:23.231Z,0.52
2023-04-07T00:45:23.295Z,0.52
2023-04-07T00:46:23.386Z,0.53
2023-04-07T00:47:23.418Z,0.52
2023-04-07T00:48:23.478Z,0.52
2023-04-07T00:49:23.521Z,0.51
2023-04-07T00:50:23.595Z,0.51
2023-04-07T00:51:23.632Z,0.51
2023-04-07T00:52:23.691Z,0.52
2023-04-07T00:53:23.699Z,0.51
2023-04-07T00:54:23.904Z,0.52
2023-04-07T00:55:23.825Z,0.52
2023-04-07T00:56:23.877Z,0.53
2023-04-07T00:57:23.937Z,0.52
2023-04-07T00:58:23.992Z,0.53
2023-04-07T00:59:24.178Z,0.53
2023-04-07T01:00:24.064Z,0.52
2023-04-07T01:01:24.124Z,0.55
2023-04-07T01:02:24.396Z,0.53
2023-04-07T01:03:24.388Z,0.53
2023-04-07T01:04:24.378Z,0.53
2023-04-07T01:05:24.334Z,0.51
2023-04-07T01:06:24.370Z,0.52
2023-04-07T01:07:24.418Z,0.52
2023-04-07T01:08:24.474Z,0.50
2023-04-07T01:09:24.542Z,0.51
2023-04-07T01:10:24.587Z,0.52
2023-04-07T01:11:24.642Z,0.52
2023-04-07T01:12:24.870Z,0.52
2023-04-07T01:13:24.737Z,0.51
2023-04-07T01:14:24.781Z,0.52
2023-04-07T01:15:24.861Z,0.53
2023-04-07T01:16:24.934Z,0.52
2023-04-07T01:17:24.997Z,0.54
2023-04-07T01:18:25.048Z,0.52
2023-04-07T01:19:25.053Z,0.52
2023-04-07T01:20:25.161Z,0.51
2023-04-07T01:21:25.354Z,0.53
2023-04-07T01:22:25.229Z,0.53
2023-04-07T01:23:25.300Z,0.51
2023-04-07T01:24:25.370Z,0.51
2023-04-07T01:25:25.419Z,0.50
2023-04-07T01:26:25.438Z,0.50
2023-04-07T01:27:25.542Z,0.52
2023-04-07T01:28:25.569Z,0.52
2023-04-07T01:29:25.641Z,0.51
2023-04-07T01:30:25.706Z,0.53
2023-04-07T01:31:25.728Z,0.54
2023-04-07T01:32:25.800Z,0.53
2023-04-07T01:33:25.877Z,0.54
2023-04-07T01:34:25.863Z,0.54
2023-04-07T01:35:25.947Z,0.54
2023-04-07T01:36:26.031Z,0.54
2023-04-07T01:37:26.107Z,0.54
2023-04-07T01:38:26.134Z,0.52
2023-04-07T01:39:26.229Z,0.52
2023-04-07T01:40:26.222Z,0.52
2023-04-07T01:41:26.292Z,0.52
2023-04-07T01:42:26.383Z,0.53
2023-04-07T01:43:26.402Z,0.53
2023-04-07T01:44:26.445Z,0.52
2023-04-07T01:45:26.539Z,0.54
2023-04-07T01:46:26.576Z,0.52
2023-04-07T01:47:26.778Z,0.52
2023-04-07T01:48:26.696Z,0.52
2023-04-07T01:49:26.790Z,0.52
2023-04-07T01:50:26.843Z,0.53
2023-04-07T01:51:26.891Z,0.53
2023-04-07T01:52:26.945Z,0.54
2023-04-07T01:53:27.006Z,0.53
2023-04-07T01:54:27.090Z,0.53
2023-04-07T01:55:27.110Z,0.53
2023-04-07T01:56:27.180Z,0.54
2023-04-07T01:57:27.320Z,0.53
2023-04-07T01:58:27.338Z,0.53
2023-04-07T01:59:27.389Z,0.52
2023-04-07T02:00:27.459Z,0.52
2023-04-07T02:01:27.570Z,0.52
2023-04-07T02:02:27.698Z,0.52
2023-04-07T02:03:27.704Z,0.53
2023-04-07T02:04:27.684Z,0.52
2023-04-07T02:05:27.762Z,0.52
2023-04-07T02:06:27.848Z,0.53
2023-04-07T02:07:27.853Z,0.53
2023-04-07T02:08:28.288Z,0.54
2023-04-07T02:09:27.990Z,0.53
2023-04-07T02:10:28.030Z,0.53
2023-04-07T02:11:28.093Z,0.53
2023-04-07T02:12:28.146Z,0.53
2023-04-07T02:13:28.180Z,0.53
2023-04-07T02:14:28.273Z,0.51
2023-04-07T02:15:28.341Z,0.52
2023-04-07T02:16:28.403Z,0.53
2023-04-07T02:17:28.487Z,0.54
2023-04-07T02:18:28.530Z,0.52
2023-04-07T02:19:28.610Z,0.53
2023-04-07T02:20:28.651Z,0.53
2023-04-07T02:21:28.727Z,0.53
2023-04-07T02:22:28.752Z,0.53
2023-04-07T02:23:28.843Z,0.53
2023-04-07T02:24:28.893Z,0.54
2023-04-07T02:25:28.956Z,0.52
2023-04-07T02:26:29.000Z,0.52
2023-04-07T02:27:29.064Z,0.53
2023-04-07T02:28:29.103Z,0.54
2023-04-07T02:29:29.215Z,0.54
2023-04-07T02:30:29.225Z,0.53
2023-04-07T02:31:29.320Z,0.54
2023-04-07T02:32:29.353Z,0.53
2023-04-07T02:33:29.377Z,0.54
2023-04-07T02:34:29.423Z,0.54
2023-04-07T02:35:29.517Z,0.54
2023-04-07T02:36:29.558Z,0.54
2023-04-07T02:37:29.673Z,0.53
2023-04-07T02:38:29.622Z,0.53
2023-04-07T02:39:29.661Z,0.53
2023-04-07T02:40:29.734Z,0.54
2023-04-07T02:41:29.732Z,0.54
2023-04-07T02:42:29.852Z,0.54
2023-04-07T02:43:29.900Z,0.54
2023-04-07T02:44:29.931Z,0.54
2023-04-07T02:45:29.969Z,0.53
2023-04-07T02:46:30.110Z,0.52
2023-04-07T02:47:30.092Z,0.53
2023-04-07T02:48:30.100Z,0.53
2023-04-07T02:49:30.145Z,0.52
2023-04-07T02:50:30.195Z,0.53
2023-04-07T02:51:30.234Z,0.53
2023-04-07T02:52:30.310Z,0.53
2023-04-07T02:53:30.395Z,0.53
2023-04-07T02:54:30.381Z,0.53
2023-04-07T02:55:30.462Z,0.53
2023-04-07T02:56:30.413Z,0.53
2023-04-07T02:57:30.451Z,0.53
2023-04-07T02:58:30.469Z,0.53
2023-04-07T02:59:30.533Z,0.54
2023-04-07T03:00:31.330Z,0.55
2023-04-07T03:01:30.684Z,0.55
2023-04-07T03:02:30.935Z,0.55
2023-04-07T03:03:30.734Z,0.55
2023-04-07T03:04:30.729Z,0.53
2023-04-07T03:05:30.718Z,0.53
2023-04-07T03:06:30.690Z,0.53
2023-04-07T03:07:30.785Z,0.54
2023-04-07T03:08:30.797Z,0.54
2023-04-07T03:09:30.761Z,0.53
2023-04-07T03:10:30.809Z,0.53
2023-04-07T03:11:30.852Z,0.54
2023-04-07T03:12:30.947Z,0.53
2023-04-07T03:13:30.902Z,0.54
2023-04-07T03:14:30.940Z,0.52
2023-04-07T03:15:30.953Z,0.53
2023-04-07T03:16:30.976Z,0.53
2023-04-07T03:17:30.985Z,0.54
2023-04-07T03:18:31.012Z,0.55
2023-04-07T03:19:31.009Z,0.54
2023-04-07T03:20:31.022Z,0.54
2023-04-07T03:21:31.091Z,0.53
2023-04-07T03:22:31.104Z,0.54
2023-04-07T03:23:31.095Z,0.54
2023-04-07T03:24:31.106Z,0.53
2023-04-07T03:25:31.156Z,0.54
2023-04-07T03:26:31.161Z,0.55
2023-04-07T03:27:31.174Z,0.54
2023-04-07T03:28:31.208Z,0.54
2023-04-07T03:29:31.265Z,0.54
2023-04-07T03:30:31.304Z,0.55
2023-04-07T03:31:31.368Z,0.54
2023-04-07T03:32:31.425Z,0.54
2023-04-07T03:33:31.401Z,0.54
2023-04-07T03:34:31.428Z,0.55
2023-04-07T03:35:31.394Z,0.54
2023-04-07T03:36:31.398Z,0.55
2023-04-07T03:37:31.437Z,0.54
2023-04-07T03:38:31.466Z,0.53
2023-04-07T03:39:31.530Z,0.54
2023-04-07T03:40:31.540Z,0.54
2023-04-07T03:41:31.545Z,0.55
2023-04-07T03:42:31.554Z,0.55
2023-04-07T03:43:31.585Z,0.54
2023-04-07T03:44:31.618Z,0.54
2023-04-07T03:45:31.666Z,0.55
2023-04-07T03:46:31.736Z,0.54
2023-04-07T03:47:31.723Z,0.54
2023-04-07T03:48:31.675Z,0.55
2023-04-07T03:49:31.740Z,0.54
2023-04-07T03:50:31.769Z,0.55
2023-04-07T03:51:31.768Z,0.55
2023-04-07T03:52:31.779Z,0.54
2023-04-07T03:53:31.818Z,0.54
2023-04-07T03:54:31.828Z,0.55
2023-04-07T03:55:31.830Z,0.56
2023-04-07T03:56:31.891Z,0.55
2023-04-07T03:57:31.852Z,0.55
2023-04-07T03:58:31.871Z,0.56
2023-04-07T03:59:31.864Z,0.55
2023-04-07T04:00:31.882Z,0.55
2023-04-07T04:01:31.911Z,0.56
2023-04-07T04:02:31.937Z,0.55
2023-04-07T04:03:32.019Z,0.53
2023-04-07T04:04:31.913Z,0.53
2023-04-07T04:05:32.318Z,0.51
2023-04-07T04:06:31.887Z,0.50
2023-04-07T04:07:31.868Z,0.51
2023-04-07T04:08:31.893Z,0.51
2023-04-07T04:09:31.891Z,0.51
2023-04-07T04:10:31.885Z,0.50
2023-04-07T04:11:31.878Z,0.51
2023-04-07T04:12:31.908Z,0.50
2023-04-07T04:13:31.850Z,0.51
2023-04-07T04:14:31.859Z,0.52
2023-04-07T04:15:31.881Z,0.51
2023-04-07T04:16:31.912Z,0.51
2023-04-07T04:17:31.908Z,0.50
2023-04-07T04:18:31.889Z,0.50
2023-04-07T04:19:31.898Z,0.50
2023-04-07T04:20:31.909Z,0.50
2023-04-07T04:21:31.917Z,0.52
2023-04-07T04:22:31.914Z,0.51
2023-04-07T04:23:31.930Z,0.51
2023-04-07T04:24:31.932Z,0.51
2023-04-07T04:25:32.002Z,0.52
2023-04-07T04:26:31.999Z,0.52
2023-04-07T04:27:31.985Z,0.51
2023-04-07T04:28:31.991Z,0.51
2023-04-07T04:29:32.922Z,0.51
2023-04-07T04:30:32.084Z,0.51
2023-04-07T04:31:32.126Z,0.51
2023-04-07T04:32:32.090Z,0.51
2023-04-07T04:33:32.146Z,0.51
2023-04-07T04:34:32.171Z,0.50
2023-04-07T04:35:32.217Z,0.50
2023-04-07T04:36:32.229Z,0.51
2023-04-07T04:37:32.225Z,0.52
2023-04-07T04:38:32.226Z,0.54
2023-04-07T04:39:32.297Z,0.54
2023-04-07T04:40:32.281Z,0.54
2023-04-07T04:41:32.342Z,0.53
2023-04-07T04:42:32.327Z,0.54
2023-04-07T04:43:32.335Z,0.52
2023-04-07T04:44:32.383Z,0.54
2023-04-07T04:45:32.346Z,0.55
2023-04-07T04:46:32.417Z,0.55
2023-04-07T04:47:32.469Z,0.54
2023-04-07T04:48:32.368Z,0.55
2023-04-07T04:49:32.415Z,0.55
2023-04-07T04:50:32.373Z,0.54
2023-04-07T04:51:32.386Z,0.54
2023-04-07T04:52:32.472Z,0.55
2023-04-07T04:53:32.411Z,0.55
2023-04-07T04:54:32.403Z,0.56
2023-04-07T04:55:32.452Z,0.56
2023-04-07T04:56:32.463Z,0.55
2023-04-07T04:57:32.435Z,0.56
2023-04-07T04:58:32.484Z,0.56
2023-04-07T04:59:32.486Z,0.56
2023-04-07T05:00:32.520Z,0.56
2023-04-07T05:01:33.580Z,0.55
2023-04-07T05:02:32.586Z,0.57
2023-04-07T05:03:32.736Z,0.57
2023-04-07T05:04:32.968Z,0.57
2023-04-07T05:05:32.519Z,0.57
2023-04-07T05:06:32.530Z,0.58
2023-04-07T05:07:32.535Z,0.57
2023-04-07T05:08:32.521Z,0.57
2023-04-07T05:09:32.557Z,0.56
2023-04-07T05:10:32.557Z,0.57
2023-04-07T05:11:32.526Z,0.58
2023-04-07T05:12:32.525Z,0.57
2023-04-07T05:13:32.562Z,0.58
2023-04-07T05:14:32.510Z,0.57
2023-04-07T05:15:32.519Z,0.57
2023-04-07T05:16:32.601Z,0.58
2023-04-07T05:17:32.548Z,0.58
2023-04-07T05:18:32.518Z,0.58
2023-04-07T05:19:32.544Z,0.57
2023-04-07T05:20:32.560Z,0.57
2023-04-07T05:21:32.566Z,0.58
2023-04-07T05:22:32.548Z,0.58
2023-04-07T05:23:32.539Z,0.58
2023-04-07T05:24:32.573Z,0.59
2023-04-07T05:25:32.557Z,0.58
2023-04-07T05:26:32.580Z,0.58
2023-04-07T05:27:32.605Z,0.58
2023-04-07T05:28:32.574Z,0.59
2023-04-07T05:29:32.579Z,0.59
2023-04-07T05:30:32.605Z,0.60
2023-04-07T05:31:32.651Z,0.60
2023-04-07T05:32:32.669Z,0.59
2023-04-07T05:33:32.639Z,0.60
2023-04-07T05:34:32.642Z,0.60
2023-04-07T05:35:32.635Z,0.59
2023-04-07T05:36:32.644Z,0.58
2023-04-07T05:37:32.656Z,0.60
2023-04-07T05:38:32.649Z,0.60
2023-04-07T05:39:32.680Z,0.61
2023-04-07T05:40:32.656Z,0.61
2023-04-07T05:41:32.679Z,0.59
2023-04-07T05:42:32.685Z,0.60
2023-04-07T05:43:32.696Z,0.60
2023-04-07T05:44:32.688Z,0.59
2023-04-07T05:45:32.685Z,0.60
2023-04-07T05:46:32.721Z,0.60
2023-04-07T05:47:32.721Z,0.60
2023-04-07T05:48:32.725Z,0.59
2023-04-07T05:49:32.724Z,0.61
2023-04-07T05:50:32.728Z,0.61
2023-04-07T05:51:32.748Z,0.60
2023-04-07T05:52:32.727Z,0.61
2023-04-07T05:53:32.721Z,0.60
2023-04-07T05:54:32.766Z,0.60
2023-04-07T05:55:32.768Z,0.61
2023-04-07T05:56:32.950Z,0.61
2023-04-07T05:57:32.778Z,0.61
2023-04-07T05:58:32.802Z,0.61
2023-04-07T05:59:32.770Z,0.61
2023-04-07T06:00:32.807Z,0.62
2023-04-07T06:01:32.822Z,0.61
2023-04-07T06:02:32.951Z,0.61
2023-04-07T06:03:32.911Z,0.61
2023-04-07T06:04:32.807Z,0.62
2023-04-07T06:05:32.865Z,0.61
2023-04-07T06:06:32.812Z,0.62
2023-04-07T06:07:32.817Z,0.62
2023-04-07T06:08:32.839Z,0.61
2023-04-07T06:09:32.865Z,0.62
2023-04-07T06:10:32.836Z,0.62
2023-04-07T06:11:32.853Z,0.61
2023-04-07T06:12:32.849Z,0.62
2023-04-07T06:13:32.916Z,0.62
2023-04-07T06:14:32.901Z,0.64
2023-04-07T06:15:32.868Z,0.63
2023-04-07T06:16:33.860Z,0.62
2023-04-07T06:17:32.892Z,0.62
2023-04-07T06:18:32.886Z,0.64
2023-04-07T06:19:32.864Z,0.63
2023-04-07T06:20:32.916Z,0.64
2023-04-07T06:21:32.888Z,0.62
2023-04-07T06:22:32.887Z,0.62
2023-04-07T06:23:32.897Z,0.64
2023-04-07T06:24:32.895Z,0.62
2023-04-07T06:25:32.906Z,0.64
2023-04-07T06:26:32.951Z,0.63
2023-04-07T06:27:32.962Z,0.64
2023-04-07T06:28:32.924Z,0.64
2023-04-07T06:29:32.932Z,0.64
2023-04-07T06:30:32.971Z,0.64
2023-04-07T06:31:32.927Z,0.64
2023-04-07T06:32:33.013Z,0.65
2023-04-07T06:33:32.923Z,0.64
2023-04-07T06:34:32.933Z,0.63
2023-04-07T06:35:32.901Z,0.64
2023-04-07T06:36:32.946Z,0.64
2023-04-07T06:37:32.937Z,0.65
2023-04-07T06:38:32.963Z,0.64
2023-04-07T06:39:32.947Z,0.64
2023-04-07T06:40:32.945Z,0.63
2023-04-07T06:41:32.938Z,0.63
2023-04-07T06:42:32.955Z,0.64
2023-04-07T06:43:32.932Z,0.65
2023-04-07T06:44:32.924Z,0.66
2023-04-07T06:45:32.947Z,0.64
2023-04-07T06:46:32.971Z,0.66
2023-04-07T06:47:32.995Z,0.65
2023-04-07T06:48:32.961Z,0.65
2023-04-07T06:49:33.845Z,0.66
2023-04-07T06:50:32.942Z,0.64
2023-04-07T06:51:32.949Z,0.65
2023-04-07T06:52:33.137Z,0.65
2023-04-07T06:53:32.992Z,0.66
2023-04-07T06:54:33.033Z,0.67
2023-04-07T06:55:33.000Z,0.66
2023-04-07T06:56:32.982Z,0.66
2023-04-07T06:57:32.986Z,0.67
2023-04-07T06:58:33.005Z,0.67
2023-04-07T06:59:32.988Z,0.66
2023-04-07T07:00:33.016Z,0.65
2023-04-07T07:01:33.195Z,0.67
2023-04-07T07:02:33.039Z,0.66
2023-04-07T07:03:33.085Z,0.67
2023-04-07T07:04:33.045Z,0.67
2023-04-07T07:05:33.021Z,0.68
2023-04-07T07:06:33.008Z,0.68
2023-04-07T07:07:33.020Z,0.66
2023-04-07T07:08:33.014Z,0.67
2023-04-07T07:09:32.978Z,0.66
2023-04-07T07:10:32.928Z,0.69
2023-04-07T07:11:32.983Z,0.68
2023-04-07T07:12:32.935Z,0.68
2023-04-07T07:13:32.970Z,0.67
2023-04-07T07:14:32.973Z,0.68
2023-04-07T07:15:32.998Z,0.69
2023-04-07T07:16:33.213Z,0.68
2023-04-07T07:17:33.070Z,0.69
2023-04-07T07:18:33.041Z,0.70
2023-04-07T07:19:33.031Z,0.71
2023-04-07T07:20:33.048Z,0.71
2023-04-07T07:21:33.104Z,0.70
2023-04-07T07:22:33.160Z,0.69
2023-04-07T07:23:33.181Z,0.69
2023-04-07T07:24:33.453Z,0.69
2023-04-07T07:25:33.303Z,0.68
2023-04-07T07:26:33.293Z,0.69
2023-04-07T07:27:33.352Z,0.69
2023-04-07T07:28:33.358Z,0.69
2023-04-07T07:29:33.432Z,0.69
2023-04-07T07:30:33.471Z,0.70
2023-04-07T07:31:33.578Z,0.69
2023-04-07T07:32:33.639Z,0.68
2023-04-07T07:33:33.657Z,0.69
2023-04-07T07:34:33.679Z,0.69
2023-04-07T07:35:33.833Z,0.70
2023-04-07T07:36:33.825Z,0.69
2023-04-07T07:37:33.872Z,0.70
2023-04-07T07:38:36.017Z,0.70
2023-04-07T07:39:33.947Z,0.71
2023-04-07T07:40:33.936Z,0.72
2023-04-07T07:41:33.922Z,0.71
2023-04-07T07:42:33.915Z,0.71
2023-04-07T07:43:33.942Z,0.71
2023-04-07T07:44:33.901Z,0.71
2023-04-07T07:45:33.904Z,0.71
2023-04-07T07:46:34.039Z,0.71
2023-04-07T07:47:33.955Z,0.71
2023-04-07T07:48:33.872Z,0.72
2023-04-07T07:49:33.877Z,0.72
2023-04-07T07:50:33.860Z,0.73
2023-04-07T07:51:33.886Z,0.73
2023-04-07T07:52:33.851Z,0.72
2023-04-07T07:53:33.803Z,0.73
2023-04-07T07:54:33.847Z,0.72
2023-04-07T07:55:33.810Z,0.73
2023-04-07T07:56:33.784Z,0.73
2023-04-07T07:57:33.791Z,0.74
2023-04-07T07:58:33.767Z,0.73
2023-04-07T07:59:33.795Z,0.73
2023-04-07T08:00:33.783Z,0.73
2023-04-07T08:01:33.845Z,0.74
2023-04-07T08:02:33.788Z,0.74
2023-04-07T08:03:33.878Z,0.72
2023-04-07T08:04:33.805Z,0.71
2023-04-07T08:05:33.743Z,0.74
2023-04-07T08:06:33.704Z,0.72
2023-04-07T08:07:33.727Z,0.74
2023-04-07T08:08:33.698Z,0.74
2023-04-07T08:09:33.752Z,0.74
2023-04-07T08:10:33.681Z,0.74
2023-04-07T08:11:33.679Z,0.73
2023-04-07T08:12:33.686Z,0.74
2023-04-07T08:13:33.686Z,0.75
2023-04-07T08:14:33.670Z,0.74
2023-04-07T08:15:33.683Z,0.75
2023-04-07T08:16:33.755Z,0.73
2023-04-07T08:17:33.690Z,0.74
2023-04-07T08:18:33.631Z,0.74
2023-04-07T08:19:33.639Z,0.74
2023-04-07T08:20:33.681Z,0.73
2023-04-07T08:21:33.610Z,0.75
2023-04-07T08:22:33.610Z,0.73
2023-04-07T08:23:33.628Z,0.74
2023-04-07T08:24:33.613Z,0.73
2023-04-07T08:25:33.634Z,0.73
2023-04-07T08:26:33.594Z,0.75
2023-04-07T08:27:33.589Z,0.74
2023-04-07T08:28:33.592Z,0.73
2023-04-07T08:29:33.560Z,0.75
2023-04-07T08:30:33.570Z,0.74
2023-04-07T08:31:33.592Z,0.75
2023-04-07T08:32:33.578Z,0.74
2023-04-07T08:33:33.583Z,0.75
2023-04-07T08:34:33.518Z,0.74
2023-04-07T08:35:33.536Z,0.75
2023-04-07T08:36:33.578Z,0.75
2023-04-07T08:37:33.527Z,0.75
2023-04-07T08:38:33.494Z,0.74
2023-04-07T08:39:33.497Z,0.74
2023-04-07T08:40:33.496Z,0.75
2023-04-07T08:41:33.495Z,0.75
2023-04-07T08:42:33.517Z,0.75
2023-04-07T08:43:33.498Z,0.75
2023-04-07T08:44:33.476Z,0.75
2023-04-07T08:45:33.440Z,0.75
2023-04-07T08:46:33.490Z,0.74
2023-04-07T08:47:33.517Z,0.74
2023-04-07T08:48:33.460Z,0.74
2023-04-07T08:49:33.462Z,0.73
2023-04-07T08:50:33.431Z,0.73
2023-04-07T08:51:33.415Z,0.73
2023-04-07T08:52:33.469Z,0.73
2023-04-07T08:53:33.388Z,0.74
2023-04-07T08:54:33.392Z,0.73
2023-04-07T08:55:33.391Z,0.73
2023-04-07T08:56:33.434Z,0.73
2023-04-07T08:57:33.385Z,0.71
2023-04-07T08:58:33.358Z,0.73
2023-04-07T08:59:33.361Z,0.73
2023-04-07T09:00:33.429Z,0.73
2023-04-07T09:01:33.617Z,0.72
2023-04-07T09:02:33.699Z,0.71
2023-04-07T09:03:33.637Z,0.72
2023-04-07T09:04:33.683Z,0.72
2023-04-07T09:05:33.708Z,0.71
2023-04-07T09:06:33.752Z,0.71
2023-04-07T09:07:33.846Z,0.70
2023-04-07T09:08:33.888Z,0.71
2023-04-07T09:09:33.992Z,0.73
2023-04-07T09:10:34.015Z,0.73
2023-04-07T09:11:34.092Z,0.73
2023-04-07T09:12:34.162Z,0.74
2023-04-07T09:13:34.166Z,0.73
2023-04-07T09:14:34.241Z,0.73
2023-04-07T09:15:34.623Z,0.74
2023-04-07T09:16:34.424Z,0.73
2023-04-07T09:17:34.510Z,0.73
2023-04-07T09:18:34.432Z,0.72
2023-04-07T09:19:34.477Z,0.73
2023-04-07T09:20:34.539Z,0.73
2023-04-07T09:21:34.561Z,0.72
2023-04-07T09:22:34.568Z,0.72
2023-04-07T09:23:34.620Z,0.72
2023-04-07T09:24:34.671Z,0.71
2023-04-07T09:25:34.765Z,0.72
2023-04-07T09:26:34.756Z,0.72
2023-04-07T09:27:34.755Z,0.69
2023-04-07T09:28:34.812Z,0.71
2023-04-07T09:29:34.807Z,0.71
2023-04-07T09:30:34.888Z,0.72
2023-04-07T09:31:34.934Z,0.72
2023-04-07T09:32:34.976Z,0.72
2023-04-07T09:33:34.927Z,0.73
2023-04-07T09:34:34.961Z,0.72
2023-04-07T09:35:35.056Z,0.72
2023-04-07T09:36:34.988Z,0.73
2023-04-07T09:37:35.041Z,0.73
2023-04-07T09:38:35.064Z,0.73
2023-04-07T09:39:35.094Z,0.73
2023-04-07T09:40:35.125Z,0.73
2023-04-07T09:41:35.204Z,0.72
2023-04-07T09:42:35.171Z,0.73
2023-04-07T09:43:35.185Z,0.73
2023-04-07T09:44:35.213Z,0.73
2023-04-07T09:45:36.644Z,0.72
2023-04-07T09:46:35.296Z,0.73
2023-04-07T09:47:35.331Z,0.72
2023-04-07T09:48:35.320Z,0.73
2023-04-07T09:49:35.330Z,0.72
2023-04-07T09:50:35.411Z,0.73
2023-04-07T09:51:35.917Z,0.73
2023-04-07T09:52:35.384Z,0.73
2023-04-07T09:53:35.392Z,0.73
2023-04-07T09:54:35.388Z,0.72
2023-04-07T09:55:35.403Z,0.73
2023-04-07T09:56:35.434Z,0.73
2023-04-07T09:57:35.455Z,0.73
2023-04-07T09:58:35.426Z,0.73
2023-04-07T09:59:35.426Z,0.73
2023-04-07T10:00:35.439Z,0.73
2023-04-07T10:01:35.543Z,0.75
2023-04-07T10:02:35.594Z,0.74
2023-04-07T10:03:35.634Z,0.74
2023-04-07T10:04:35.487Z,0.73
2023-04-07T10:05:35.476Z,0.74
2023-04-07T10:06:35.490Z,0.73
2023-04-07T10:07:35.506Z,0.72
2023-04-07T10:08:35.493Z,0.74
2023-04-07T10:09:35.499Z,0.74
2023-04-07T10:10:35.510Z,0.74
2023-04-07T10:11:35.477Z,0.73
2023-04-07T10:12:35.486Z,0.73
2023-04-07T10:13:35.486Z,0.73
2023-04-07T10:14:35.504Z,0.72
2023-04-07T10:15:35.503Z,0.73
2023-04-07T10:16:35.576Z,0.72
2023-04-07T10:17:35.562Z,0.72
2023-04-07T10:18:35.519Z,0.73
2023-04-07T10:19:35.472Z,0.73
2023-04-07T10:20:35.492Z,0.73
2023-04-07T10:21:35.488Z,0.73
2023-04-07T10:22:35.487Z,0.73
2023-04-07T10:23:35.497Z,0.73
2023-04-07T10:24:35.475Z,0.72
2023-04-07T10:25:35.467Z,0.73
2023-04-07T10:26:35.481Z,0.73
2023-04-07T10:27:35.494Z,0.74
2023-04-07T10:28:35.537Z,0.73
2023-04-07T10:29:35.425Z,0.74
2023-04-07T10:30:35.436Z,0.73
2023-04-07T10:31:35.450Z,0.74
2023-04-07T10:32:35.470Z,0.74
2023-04-07T10:33:35.493Z,0.75
2023-04-07T10:34:35.537Z,0.75
2023-04-07T10:35:35.605Z,0.75
2023-04-07T10:36:35.541Z,0.75
2023-04-07T10:37:35.650Z,0.76
2023-04-07T10:38:35.606Z,0.75
2023-04-07T10:39:35.661Z,0.76
2023-04-07T10:40:35.648Z,0.77
2023-04-07T10:41:35.654Z,0.77
2023-04-07T10:42:35.691Z,0.76
2023-04-07T10:43:35.690Z,0.77
2023-04-07T10:44:35.711Z,0.78
2023-04-07T10:45:35.711Z,0.79
2023-04-07T10:46:35.832Z,0.80
2023-04-07T10:47:35.813Z,0.79
2023-04-07T10:48:35.755Z,0.82
2023-04-07T10:49:35.847Z,0.80
2023-04-07T10:50:35.840Z,0.82
2023-04-07T10:51:35.864Z,0.83
2023-04-07T10:52:35.916Z,0.83
2023-04-07T10:53:35.948Z,0.84
2023-04-07T10:54:35.979Z,0.85
2023-04-07T10:55:36.045Z,0.86
2023-04-07T10:56:36.045Z,0.86
2023-04-07T10:57:36.096Z,0.85
2023-04-07T10:58:36.115Z,0.87
2023-04-07T10:59:36.158Z,0.87
2023-04-07T11:00:36.181Z,0.87
2023-04-07T11:01:36.317Z,0.89
2023-04-07T11:02:36.692Z,0.89
2023-04-07T11:03:36.450Z,0.89
2023-04-07T11:04:36.484Z,0.89
2023-04-07T11:05:36.421Z,0.91
2023-04-07T11:06:36.466Z,0.90
2023-04-07T11:07:36.496Z,0.89
2023-04-07T11:08:36.567Z,0.91
2023-04-07T11:09:36.588Z,0.91
2023-04-07T11:10:36.668Z,0.91
2023-04-07T11:11:36.716Z,0.91
2023-04-07T11:12:36.748Z,0.93
2023-04-07T11:13:36.826Z,0.90
2023-04-07T11:14:37.039Z,0.92
2023-04-07T11:15:39.425Z,0.93
2023-04-07T11:16:36.928Z,0.94
2023-04-07T11:17:36.933Z,0.94
2023-04-07T11:18:36.860Z,0.94
2023-04-07T11:19:36.856Z,0.93
2023-04-07T11:20:36.815Z,0.94
2023-04-07T11:21:36.895Z,0.92
2023-04-07T11:22:36.883Z,0.93
2023-04-07T11:23:36.821Z,0.93
2023-04-07T11:24:36.841Z,0.93
2023-04-07T11:25:36.864Z,0.94
2023-04-07T11:26:36.814Z,0.94
2023-04-07T11:27:36.820Z,0.94
2023-04-07T11:28:36.827Z,0.95
2023-04-07T11:29:36.828Z,0.95
2023-04-07T11:30:36.769Z,0.95
2023-04-07T11:31:36.845Z,0.94
2023-04-07T11:32:36.801Z,0.95
2023-04-07T11:33:36.754Z,0.95
2023-04-07T11:34:36.761Z,0.95
2023-04-07T11:35:36.847Z,0.95
2023-04-07T11:36:36.829Z,0.95
2023-04-07T11:37:36.791Z,0.96
2023-04-07T11:38:36.728Z,0.95
2023-04-07T11:39:36.728Z,0.94
2023-04-07T11:40:36.795Z,0.95
2023-04-07T11:41:36.825Z,0.96
2023-04-07T11:42:36.740Z,0.96
2023-04-07T11:43:36.714Z,0.94
2023-04-07T11:44:36.834Z,0.96
2023-04-07T11:45:36.680Z,0.96
2023-04-07T11:46:36.733Z,0.97
2023-04-07T11:47:36.754Z,0.96
2023-04-07T11:48:36.687Z,0.96
2023-04-07T11:49:36.664Z,0.97
2023-04-07T11:50:36.663Z,0.97
2023-04-07T11:51:36.710Z,0.96
2023-04-07T11:52:36.785Z,0.98
2023-04-07T11:53:36.844Z,0.96
2023-04-07T11:54:36.894Z,0.98
2023-04-07T11:55:37.015Z,0.97
2023-04-07T11:56:37.518Z,0.97
2023-04-07T11:57:37.056Z,0.99
2023-04-07T11:58:37.143Z,0.97
2023-04-07T11:59:37.230Z,0.97
2023-04-07T12:00:37.247Z,0.97
2023-04-07T12:01:37.362Z,0.97
2023-04-07T12:02:37.630Z,0.97
2023-04-07T12:03:37.627Z,0.97
2023-04-07T12:04:37.766Z,0.97
2023-04-07T12:05:37.591Z,0.99
2023-04-07T12:06:37.588Z,0.98
2023-04-07T12:07:37.709Z,0.98
2023-04-07T12:08:37.832Z,0.95
2023-04-07T12:09:38.082Z,0.98
2023-04-07T12:10:37.850Z,0.99
2023-04-07T12:11:37.923Z,0.98
2023-04-07T12:12:37.978Z,0.95
2023-04-07T12:13:38.031Z,0.97
2023-04-07T12:14:38.119Z,0.95
2023-04-07T12:15:38.181Z,0.96
2023-04-07T12:16:38.369Z,0.93
2023-04-07T12:17:38.360Z,0.95
2023-04-07T12:18:38.340Z,0.94
2023-04-07T12:19:38.403Z,0.92
2023-04-07T12:20:38.455Z,0.94
2023-04-07T12:21:38.528Z,0.92
2023-04-07T12:22:38.636Z,0.94
2023-04-07T12:23:38.642Z,0.90
2023-04-07T12:24:38.718Z,0.93
2023-04-07T12:25:38.778Z,0.93
2023-04-07T12:26:39.564Z,0.92
2023-04-07T12:28:38.856Z,0.88
2023-04-07T12:29:38.865Z,0.91
2023-04-07T12:30:38.874Z,0.90
2023-04-07T12:31:38.909Z,0.89
2023-04-07T12:32:38.863Z,0.90
2023-04-07T12:33:38.853Z,0.88
2023-04-07T12:34:38.829Z,0.88
2023-04-07T12:35:38.858Z,0.87
2023-04-07T12:36:38.803Z,0.85
2023-04-07T12:37:38.808Z,0.87
2023-04-07T12:38:38.795Z,0.85
2023-04-07T12:39:38.775Z,0.85
2023-04-07T12:40:38.791Z,0.86
2023-04-07T12:41:38.805Z,0.86
2023-04-07T12:42:38.779Z,0.86
2023-04-07T12:43:38.741Z,0.84
2023-04-07T12:44:38.761Z,0.85
2023-04-07T12:45:38.786Z,0.83
2023-04-07T12:46:38.789Z,0.85
2023-04-07T12:47:38.772Z,0.86
2023-04-07T12:48:38.747Z,0.82
2023-04-07T12:49:38.726Z,0.82
2023-04-07T12:50:38.745Z,0.81
2023-04-07T12:51:38.703Z,0.83
2023-04-07T12:52:38.719Z,0.84
2023-04-07T12:53:38.663Z,0.85
2023-04-07T12:54:38.725Z,0.83
2023-04-07T12:55:38.677Z,0.81
2023-04-07T12:56:38.683Z,0.82
2023-04-07T12:57:38.671Z,0.79
2023-04-07T12:58:38.650Z,0.83
2023-04-07T12:59:38.651Z,0.83
2023-04-07T13:00:38.615Z,0.83
2023-04-07T13:01:38.825Z,0.81
2023-04-07T13:02:38.729Z,0.80
2023-04-07T13:03:38.808Z,0.81
2023-04-07T13:04:38.693Z,0.82
2023-04-07T13:05:38.584Z,0.82
2023-04-07T13:06:38.645Z,0.79
2023-04-07T13:07:38.646Z,0.80
2023-04-07T13:08:38.663Z,0.81
2023-04-07T13:09:38.691Z,0.81
2023-04-07T13:10:38.745Z,0.82
2023-04-07T13:11:38.758Z,0.81
2023-04-07T13:12:38.774Z,0.80
2023-04-07T13:13:38.794Z,0.81
2023-04-07T13:14:49.407Z,0.80
2023-04-07T13:15:39.922Z,0.80
2023-04-07T13:16:38.853Z,0.80
2023-04-07T13:17:38.842Z,0.80
2023-04-07T13:18:38.775Z,0.80
2023-04-07T13:19:38.749Z,0.79